sensor_id;sensor_type;location;lat;lon;timestamp;P1;durP1;ratioP1;P2;durP2;ratioP2
13927;SDS011;7036;50.834;4.718;2022-11-20T00:01:14;7.60;;;6.80;;
13927;SDS011;7036;50.834;4.718;2022-11-20T00:03:42;7.03;;;6.33;;
13927;SDS011;7036;50.834;4.718;2022-11-20T00:06:14;6.82;;;6.22;;
13927;SDS011;7036;50.834;4.718;2022-11-20T00:08:40;6.87;;;6.17;;
13927;SDS011;7036;50.834;4.718;2022-11-20T00:11:09;7.07;;;6.38;;
13927;SDS011;7036;50.834;4.718;2022-11-20T00:13:35;7.00;;;6.30;;
13927;SDS011;7036;50.834;4.718;2022-11-20T00:16:04;6.22;;;5.63;;
13927;SDS011;7036;50.834;4.718;2022-11-20T00:18:32;6.93;;;6.32;;
13927;SDS011;7036;50.834;4.718;2022-11-20T00:21:00;7.47;;;6.78;;
13927;SDS011;7036;50.834;4.718;2022-11-20T00:23:27;6.93;;;6.30;;
13927;SDS011;7036;50.834;4.718;2022-11-20T00:25:56;7.43;;;6.70;;
13927;SDS011;7036;50.834;4.718;2022-11-20T00:28:23;8.43;;;6.40;;
13927;SDS011;7036;50.834;4.718;2022-11-20T00:30:50;6.57;;;5.97;;
13927;SDS011;7036;50.834;4.718;2022-11-20T00:33:18;6.55;;;5.57;;
13927;SDS011;7036;50.834;4.718;2022-11-20T00:35:46;7.18;;;6.28;;
13927;SDS011;7036;50.834;4.718;2022-11-20T00:38:14;6.93;;;6.30;;
13927;SDS011;7036;50.834;4.718;2022-11-20T00:40:42;8.05;;;7.25;;
13927;SDS011;7036;50.834;4.718;2022-11-20T00:43:09;6.63;;;5.63;;
13927;SDS011;7036;50.834;4.718;2022-11-20T00:45:36;6.40;;;5.63;;
13927;SDS011;7036;50.834;4.718;2022-11-20T00:48:04;7.80;;;6.60;;
13927;SDS011;7036;50.834;4.718;2022-11-20T00:50:31;6.28;;;5.78;;
13927;SDS011;7036;50.834;4.718;2022-11-20T00:52:59;7.20;;;6.50;;
13927;SDS011;7036;50.834;4.718;2022-11-20T00:55:27;6.30;;;5.65;;
13927;SDS011;7036;50.834;4.718;2022-11-20T00:57:55;6.75;;;6.15;;
13927;SDS011;7036;50.834;4.718;2022-11-20T01:00:23;6.80;;;5.82;;
13927;SDS011;7036;50.834;4.718;2022-11-20T01:02:51;6.55;;;5.93;;
13927;SDS011;7036;50.834;4.718;2022-11-20T01:05:19;7.00;;;5.68;;
13927;SDS011;7036;50.834;4.718;2022-11-20T01:07:47;6.32;;;5.72;;
13927;SDS011;7036;50.834;4.718;2022-11-20T01:10:15;6.88;;;6.18;;
13927;SDS011;7036;50.834;4.718;2022-11-20T01:12:43;6.70;;;5.88;;
13927;SDS011;7036;50.834;4.718;2022-11-20T01:15:10;6.32;;;5.72;;
13927;SDS011;7036;50.834;4.718;2022-11-20T01:17:37;7.32;;;6.35;;
13927;SDS011;7036;50.834;4.718;2022-11-20T01:20:05;7.32;;;6.43;;
13927;SDS011;7036;50.834;4.718;2022-11-20T01:22:32;8.27;;;6.18;;
13927;SDS011;7036;50.834;4.718;2022-11-20T01:25:00;6.55;;;5.70;;
13927;SDS011;7036;50.834;4.718;2022-11-20T01:27:28;7.15;;;6.45;;
13927;SDS011;7036;50.834;4.718;2022-11-20T01:29:55;7.60;;;6.38;;
13927;SDS011;7036;50.834;4.718;2022-11-20T01:32:22;5.97;;;5.38;;
13927;SDS011;7036;50.834;4.718;2022-11-20T01:34:50;6.25;;;5.68;;
13927;SDS011;7036;50.834;4.718;2022-11-20T01:37:18;6.53;;;5.82;;
13927;SDS011;7036;50.834;4.718;2022-11-20T01:39:46;7.32;;;6.63;;
13927;SDS011;7036;50.834;4.718;2022-11-20T01:42:13;6.90;;;6.07;;
13927;SDS011;7036;50.834;4.718;2022-11-20T01:44:54;7.20;;;5.93;;
13927;SDS011;7036;50.834;4.718;2022-11-20T01:47:33;7.63;;;6.38;;
13927;SDS011;7036;50.834;4.718;2022-11-20T01:49:59;6.47;;;5.87;;
13927;SDS011;7036;50.834;4.718;2022-11-20T01:52:36;8.70;;;6.35;;
13927;SDS011;7036;50.834;4.718;2022-11-20T01:55:12;10.13;;;6.23;;
13927;SDS011;7036;50.834;4.718;2022-11-20T01:57:34;7.57;;;6.77;;
13927;SDS011;7036;50.834;4.718;2022-11-20T02:00:07;7.35;;;6.25;;
13927;SDS011;7036;50.834;4.718;2022-11-20T02:02:34;7.67;;;6.37;;
13927;SDS011;7036;50.834;4.718;2022-11-20T02:05:01;7.67;;;6.87;;
13927;SDS011;7036;50.834;4.718;2022-11-20T02:07:28;9.43;;;6.50;;
13927;SDS011;7036;50.834;4.718;2022-11-20T02:09:56;8.75;;;7.03;;
13927;SDS011;7036;50.834;4.718;2022-11-20T02:12:24;8.00;;;6.55;;
13927;SDS011;7036;50.834;4.718;2022-11-20T02:15:10;7.90;;;7.03;;
13927;SDS011;7036;50.834;4.718;2022-11-20T02:17:38;9.23;;;6.97;;
13927;SDS011;7036;50.834;4.718;2022-11-20T02:20:06;8.27;;;6.53;;
13927;SDS011;7036;50.834;4.718;2022-11-20T02:22:38;7.53;;;6.60;;
13927;SDS011;7036;50.834;4.718;2022-11-20T02:25:02;8.17;;;7.20;;
13927;SDS011;7036;50.834;4.718;2022-11-20T02:27:29;8.00;;;7.20;;
13927;SDS011;7036;50.834;4.718;2022-11-20T02:29:59;7.63;;;6.90;;
13927;SDS011;7036;50.834;4.718;2022-11-20T02:32:26;7.68;;;6.30;;
13927;SDS011;7036;50.834;4.718;2022-11-20T02:34:53;7.75;;;7.05;;
13927;SDS011;7036;50.834;4.718;2022-11-20T02:37:22;8.07;;;7.03;;
13927;SDS011;7036;50.834;4.718;2022-11-20T02:39:49;8.03;;;7.23;;
13927;SDS011;7036;50.834;4.718;2022-11-20T02:42:17;8.68;;;7.70;;
13927;SDS011;7036;50.834;4.718;2022-11-20T02:44:43;9.03;;;6.87;;
13927;SDS011;7036;50.834;4.718;2022-11-20T02:47:11;7.82;;;6.60;;
13927;SDS011;7036;50.834;4.718;2022-11-20T02:52:08;8.73;;;7.70;;
13927;SDS011;7036;50.834;4.718;2022-11-20T02:54:35;7.95;;;7.15;;
13927;SDS011;7036;50.834;4.718;2022-11-20T02:57:03;7.70;;;7.00;;
13927;SDS011;7036;50.834;4.718;2022-11-20T02:59:30;8.77;;;7.45;;
13927;SDS011;7036;50.834;4.718;2022-11-20T03:01:58;8.88;;;6.85;;
13927;SDS011;7036;50.834;4.718;2022-11-20T03:04:26;8.00;;;6.65;;
13927;SDS011;7036;50.834;4.718;2022-11-20T03:06:54;7.88;;;7.05;;
13927;SDS011;7036;50.834;4.718;2022-11-20T03:09:22;8.60;;;7.30;;
13927;SDS011;7036;50.834;4.718;2022-11-20T03:11:51;9.02;;;6.82;;
13927;SDS011;7036;50.834;4.718;2022-11-20T03:14:18;8.07;;;7.27;;
13927;SDS011;7036;50.834;4.718;2022-11-20T03:16:45;8.48;;;7.60;;
13927;SDS011;7036;50.834;4.718;2022-11-20T03:19:13;9.65;;;7.38;;
13927;SDS011;7036;50.834;4.718;2022-11-20T03:21:40;8.80;;;7.45;;
13927;SDS011;7036;50.834;4.718;2022-11-20T03:24:08;9.32;;;8.32;;
13927;SDS011;7036;50.834;4.718;2022-11-20T03:26:35;10.27;;;7.90;;
13927;SDS011;7036;50.834;4.718;2022-11-20T03:29:03;9.90;;;8.27;;
13927;SDS011;7036;50.834;4.718;2022-11-20T03:31:34;9.85;;;7.10;;
13927;SDS011;7036;50.834;4.718;2022-11-20T03:33:59;8.88;;;7.95;;
13927;SDS011;7036;50.834;4.718;2022-11-20T03:36:27;11.10;;;8.30;;
13927;SDS011;7036;50.834;4.718;2022-11-20T03:38:55;9.45;;;8.00;;
13927;SDS011;7036;50.834;4.718;2022-11-20T03:41:23;11.25;;;8.10;;
13927;SDS011;7036;50.834;4.718;2022-11-20T03:43:54;10.05;;;8.68;;
13927;SDS011;7036;50.834;4.718;2022-11-20T03:46:19;8.80;;;7.67;;
13927;SDS011;7036;50.834;4.718;2022-11-20T03:48:46;9.50;;;7.73;;
13927;SDS011;7036;50.834;4.718;2022-11-20T03:51:14;10.75;;;8.35;;
13927;SDS011;7036;50.834;4.718;2022-11-20T03:53:41;9.40;;;7.88;;
13927;SDS011;7036;50.834;4.718;2022-11-20T03:56:08;11.23;;;8.48;;
13927;SDS011;7036;50.834;4.718;2022-11-20T03:58:45;8.65;;;7.78;;
13927;SDS011;7036;50.834;4.718;2022-11-20T04:01:16;8.60;;;7.70;;
13927;SDS011;7036;50.834;4.718;2022-11-20T04:03:42;9.43;;;7.80;;
13927;SDS011;7036;50.834;4.718;2022-11-20T04:06:11;8.70;;;7.90;;
13927;SDS011;7036;50.834;4.718;2022-11-20T04:08:40;9.32;;;7.55;;
13927;SDS011;7036;50.834;4.718;2022-11-20T04:13:38;9.67;;;7.73;;
13927;SDS011;7036;50.834;4.718;2022-11-20T04:16:07;9.93;;;7.72;;
13927;SDS011;7036;50.834;4.718;2022-11-20T04:18:34;9.02;;;8.13;;
13927;SDS011;7036;50.834;4.718;2022-11-20T04:21:02;9.27;;;7.55;;
13927;SDS011;7036;50.834;4.718;2022-11-20T04:23:30;9.27;;;7.85;;
13927;SDS011;7036;50.834;4.718;2022-11-20T04:26:05;8.50;;;7.53;;
13927;SDS011;7036;50.834;4.718;2022-11-20T04:28:31;9.63;;;8.57;;
13927;SDS011;7036;50.834;4.718;2022-11-20T04:31:05;9.27;;;8.20;;
13927;SDS011;7036;50.834;4.718;2022-11-20T04:33:32;9.03;;;8.00;;
13927;SDS011;7036;50.834;4.718;2022-11-20T04:36:04;8.75;;;7.82;;
13927;SDS011;7036;50.834;4.718;2022-11-20T04:38:29;10.87;;;8.60;;
13927;SDS011;7036;50.834;4.718;2022-11-20T04:41:01;9.00;;;7.90;;
13927;SDS011;7036;50.834;4.718;2022-11-20T04:43:27;10.77;;;8.23;;
13927;SDS011;7036;50.834;4.718;2022-11-20T04:45:55;7.75;;;6.95;;
13927;SDS011;7036;50.834;4.718;2022-11-20T04:48:22;8.00;;;7.20;;
13927;SDS011;7036;50.834;4.718;2022-11-20T04:50:50;8.55;;;7.60;;
13927;SDS011;7036;50.834;4.718;2022-11-20T04:53:18;8.93;;;7.95;;
13927;SDS011;7036;50.834;4.718;2022-11-20T04:55:46;7.93;;;6.82;;
13927;SDS011;7036;50.834;4.718;2022-11-20T04:58:14;9.60;;;7.05;;
13927;SDS011;7036;50.834;4.718;2022-11-20T05:00:41;9.45;;;7.50;;
13927;SDS011;7036;50.834;4.718;2022-11-20T05:03:09;11.75;;;7.80;;
13927;SDS011;7036;50.834;4.718;2022-11-20T05:05:37;9.63;;;7.47;;
13927;SDS011;7036;50.834;4.718;2022-11-20T05:08:05;10.18;;;8.05;;
13927;SDS011;7036;50.834;4.718;2022-11-20T05:10:31;8.10;;;7.10;;
13927;SDS011;7036;50.834;4.718;2022-11-20T05:12:59;9.13;;;7.90;;
13927;SDS011;7036;50.834;4.718;2022-11-20T05:15:27;11.20;;;8.70;;
13927;SDS011;7036;50.834;4.718;2022-11-20T05:17:55;9.05;;;8.15;;
13927;SDS011;7036;50.834;4.718;2022-11-20T05:20:23;8.93;;;7.68;;
13927;SDS011;7036;50.834;4.718;2022-11-20T05:22:50;8.40;;;7.35;;
13927;SDS011;7036;50.834;4.718;2022-11-20T05:25:17;8.63;;;7.53;;
13927;SDS011;7036;50.834;4.718;2022-11-20T05:27:45;7.93;;;7.20;;
13927;SDS011;7036;50.834;4.718;2022-11-20T05:30:12;9.48;;;8.10;;
13927;SDS011;7036;50.834;4.718;2022-11-20T05:32:40;9.63;;;7.68;;
13927;SDS011;7036;50.834;4.718;2022-11-20T05:35:08;10.60;;;7.35;;
13927;SDS011;7036;50.834;4.718;2022-11-20T05:37:35;8.13;;;6.82;;
13927;SDS011;7036;50.834;4.718;2022-11-20T05:40:03;9.95;;;7.55;;
13927;SDS011;7036;50.834;4.718;2022-11-20T05:42:30;8.73;;;7.13;;
13927;SDS011;7036;50.834;4.718;2022-11-20T05:44:58;8.88;;;7.85;;
13927;SDS011;7036;50.834;4.718;2022-11-20T05:47:26;9.30;;;7.18;;
13927;SDS011;7036;50.834;4.718;2022-11-20T05:49:53;9.07;;;7.22;;
13927;SDS011;7036;50.834;4.718;2022-11-20T05:52:20;8.85;;;7.95;;
13927;SDS011;7036;50.834;4.718;2022-11-20T05:54:48;7.95;;;7.05;;
13927;SDS011;7036;50.834;4.718;2022-11-20T05:57:16;8.38;;;7.43;;
13927;SDS011;7036;50.834;4.718;2022-11-20T05:59:43;8.70;;;7.78;;
13927;SDS011;7036;50.834;4.718;2022-11-20T06:02:11;7.80;;;7.05;;
13927;SDS011;7036;50.834;4.718;2022-11-20T06:04:39;8.02;;;7.22;;
13927;SDS011;7036;50.834;4.718;2022-11-20T06:07:06;7.20;;;6.40;;
13927;SDS011;7036;50.834;4.718;2022-11-20T06:09:33;9.57;;;7.38;;
13927;SDS011;7036;50.834;4.718;2022-11-20T06:12:00;7.93;;;6.65;;
13927;SDS011;7036;50.834;4.718;2022-11-20T06:14:28;9.35;;;7.93;;
13927;SDS011;7036;50.834;4.718;2022-11-20T06:16:55;7.15;;;6.40;;
13927;SDS011;7036;50.834;4.718;2022-11-20T06:19:22;7.53;;;6.68;;
13927;SDS011;7036;50.834;4.718;2022-11-20T06:21:49;6.90;;;6.20;;
13927;SDS011;7036;50.834;4.718;2022-11-20T06:24:17;6.07;;;5.40;;
13927;SDS011;7036;50.834;4.718;2022-11-20T06:26:45;8.85;;;6.60;;
13927;SDS011;7036;50.834;4.718;2022-11-20T06:29:13;7.05;;;6.30;;
13927;SDS011;7036;50.834;4.718;2022-11-20T06:31:41;7.15;;;6.28;;
13927;SDS011;7036;50.834;4.718;2022-11-20T06:34:09;6.97;;;5.97;;
13927;SDS011;7036;50.834;4.718;2022-11-20T06:36:37;6.40;;;5.80;;
13927;SDS011;7036;50.834;4.718;2022-11-20T06:39:05;6.00;;;5.40;;
13927;SDS011;7036;50.834;4.718;2022-11-20T06:41:32;6.72;;;6.00;;
13927;SDS011;7036;50.834;4.718;2022-11-20T06:43:59;6.25;;;5.65;;
13927;SDS011;7036;50.834;4.718;2022-11-20T06:46:27;7.22;;;5.80;;
13927;SDS011;7036;50.834;4.718;2022-11-20T06:48:55;7.15;;;6.18;;
13927;SDS011;7036;50.834;4.718;2022-11-20T06:51:23;6.78;;;5.93;;
13927;SDS011;7036;50.834;4.718;2022-11-20T06:53:50;7.72;;;6.15;;
13927;SDS011;7036;50.834;4.718;2022-11-20T06:56:17;7.63;;;6.68;;
13927;SDS011;7036;50.834;4.718;2022-11-20T06:58:45;7.47;;;6.70;;
13927;SDS011;7036;50.834;4.718;2022-11-20T07:01:12;7.65;;;6.78;;
13927;SDS011;7036;50.834;4.718;2022-11-20T07:03:39;8.57;;;6.65;;
13927;SDS011;7036;50.834;4.718;2022-11-20T07:06:06;8.55;;;6.57;;
13927;SDS011;7036;50.834;4.718;2022-11-20T07:08:34;8.00;;;6.95;;
13927;SDS011;7036;50.834;4.718;2022-11-20T07:11:02;8.57;;;7.43;;
13927;SDS011;7036;50.834;4.718;2022-11-20T07:13:28;12.18;;;8.00;;
13927;SDS011;7036;50.834;4.718;2022-11-20T07:15:58;9.10;;;7.28;;
13927;SDS011;7036;50.834;4.718;2022-11-20T07:18:23;8.52;;;7.30;;
13927;SDS011;7036;50.834;4.718;2022-11-20T07:20:51;10.45;;;8.00;;
13927;SDS011;7036;50.834;4.718;2022-11-20T07:23:19;12.50;;;8.93;;
13927;SDS011;7036;50.834;4.718;2022-11-20T07:25:46;13.70;;;9.40;;
13927;SDS011;7036;50.834;4.718;2022-11-20T07:28:13;13.65;;;9.95;;
13927;SDS011;7036;50.834;4.718;2022-11-20T07:30:41;14.10;;;8.88;;
13927;SDS011;7036;50.834;4.718;2022-11-20T07:33:08;12.30;;;10.20;;
13927;SDS011;7036;50.834;4.718;2022-11-20T07:35:35;15.30;;;10.70;;
13927;SDS011;7036;50.834;4.718;2022-11-20T07:38:02;19.95;;;10.98;;
13927;SDS011;7036;50.834;4.718;2022-11-20T07:40:30;15.32;;;8.75;;
13927;SDS011;7036;50.834;4.718;2022-11-20T07:42:58;23.92;;;9.75;;
13927;SDS011;7036;50.834;4.718;2022-11-20T07:45:25;14.55;;;10.38;;
13927;SDS011;7036;50.834;4.718;2022-11-20T07:47:53;13.45;;;9.65;;
13927;SDS011;7036;50.834;4.718;2022-11-20T07:50:20;16.85;;;9.70;;
13927;SDS011;7036;50.834;4.718;2022-11-20T07:52:47;15.90;;;9.27;;
13927;SDS011;7036;50.834;4.718;2022-11-20T07:55:15;12.65;;;9.43;;
13927;SDS011;7036;50.834;4.718;2022-11-20T07:57:43;14.35;;;9.82;;
13927;SDS011;7036;50.834;4.718;2022-11-20T08:00:12;13.48;;;9.82;;
13927;SDS011;7036;50.834;4.718;2022-11-20T08:02:39;14.87;;;9.83;;
13927;SDS011;7036;50.834;4.718;2022-11-20T08:05:06;19.58;;;9.80;;
13927;SDS011;7036;50.834;4.718;2022-11-20T08:07:39;14.35;;;9.68;;
13927;SDS011;7036;50.834;4.718;2022-11-20T08:10:06;14.33;;;9.67;;
13927;SDS011;7036;50.834;4.718;2022-11-20T08:12:34;31.63;;;11.20;;
13927;SDS011;7036;50.834;4.718;2022-11-20T08:15:19;19.67;;;11.17;;
13927;SDS011;7036;50.834;4.718;2022-11-20T08:17:46;19.73;;;11.47;;
13927;SDS011;7036;50.834;4.718;2022-11-20T08:20:13;20.88;;;11.55;;
13927;SDS011;7036;50.834;4.718;2022-11-20T08:22:40;17.67;;;11.57;;
13927;SDS011;7036;50.834;4.718;2022-11-20T08:25:08;15.48;;;10.52;;
13927;SDS011;7036;50.834;4.718;2022-11-20T08:27:35;14.63;;;10.18;;
13927;SDS011;7036;50.834;4.718;2022-11-20T08:30:02;14.63;;;10.70;;
13927;SDS011;7036;50.834;4.718;2022-11-20T08:32:30;16.23;;;10.68;;
13927;SDS011;7036;50.834;4.718;2022-11-20T08:34:57;14.95;;;10.75;;
13927;SDS011;7036;50.834;4.718;2022-11-20T08:37:24;14.18;;;10.30;;
13927;SDS011;7036;50.834;4.718;2022-11-20T08:39:51;18.73;;;11.57;;
13927;SDS011;7036;50.834;4.718;2022-11-20T08:42:18;15.02;;;10.65;;
13927;SDS011;7036;50.834;4.718;2022-11-20T08:44:46;17.42;;;10.98;;
13927;SDS011;7036;50.834;4.718;2022-11-20T08:47:13;18.38;;;9.80;;
13927;SDS011;7036;50.834;4.718;2022-11-20T08:49:41;14.85;;;9.77;;
13927;SDS011;7036;50.834;4.718;2022-11-20T08:52:09;15.18;;;9.88;;
13927;SDS011;7036;50.834;4.718;2022-11-20T08:54:36;22.40;;;10.55;;
13927;SDS011;7036;50.834;4.718;2022-11-20T08:57:03;17.60;;;10.45;;
13927;SDS011;7036;50.834;4.718;2022-11-20T08:59:31;15.35;;;10.32;;
13927;SDS011;7036;50.834;4.718;2022-11-20T09:01:58;17.80;;;10.30;;
13927;SDS011;7036;50.834;4.718;2022-11-20T09:04:26;16.20;;;9.25;;
13927;SDS011;7036;50.834;4.718;2022-11-20T09:06:53;16.88;;;10.25;;
13927;SDS011;7036;50.834;4.718;2022-11-20T09:09:21;15.57;;;9.68;;
13927;SDS011;7036;50.834;4.718;2022-11-20T09:11:49;17.17;;;9.50;;
13927;SDS011;7036;50.834;4.718;2022-11-20T09:14:16;17.20;;;10.35;;
13927;SDS011;7036;50.834;4.718;2022-11-20T09:16:45;14.85;;;9.88;;
13927;SDS011;7036;50.834;4.718;2022-11-20T09:19:12;14.70;;;9.55;;
13927;SDS011;7036;50.834;4.718;2022-11-20T09:21:40;18.92;;;9.65;;
13927;SDS011;7036;50.834;4.718;2022-11-20T09:24:08;16.05;;;9.95;;
13927;SDS011;7036;50.834;4.718;2022-11-20T09:26:36;15.95;;;9.63;;
13927;SDS011;7036;50.834;4.718;2022-11-20T09:29:03;12.85;;;10.00;;
13927;SDS011;7036;50.834;4.718;2022-11-20T09:31:31;16.13;;;10.15;;
13927;SDS011;7036;50.834;4.718;2022-11-20T09:33:58;15.38;;;10.60;;
13927;SDS011;7036;50.834;4.718;2022-11-20T09:36:25;21.13;;;11.93;;
13927;SDS011;7036;50.834;4.718;2022-11-20T09:38:54;19.20;;;11.75;;
13927;SDS011;7036;50.834;4.718;2022-11-20T09:47:08;19.37;;;11.57;;
13927;SDS011;7036;50.834;4.718;2022-11-20T09:49:49;21.03;;;11.80;;
13927;SDS011;7036;50.834;4.718;2022-11-20T09:55:12;18.87;;;10.97;;
13927;SDS011;7036;50.834;4.718;2022-11-20T09:57:40;20.67;;;10.63;;
13927;SDS011;7036;50.834;4.718;2022-11-20T10:00:08;19.58;;;10.15;;
13927;SDS011;7036;50.834;4.718;2022-11-20T10:02:55;19.77;;;9.80;;
13927;SDS011;7036;50.834;4.718;2022-11-20T10:05:30;17.17;;;10.83;;
13927;SDS011;7036;50.834;4.718;2022-11-20T10:07:48;14.90;;;9.80;;
13927;SDS011;7036;50.834;4.718;2022-11-20T10:10:28;14.63;;;10.07;;
13927;SDS011;7036;50.834;4.718;2022-11-20T10:15:47;15.77;;;9.97;;
13927;SDS011;7036;50.834;4.718;2022-11-20T10:21:00;14.60;;;9.30;;
13927;SDS011;7036;50.834;4.718;2022-11-20T10:29:10;12.37;;;9.13;;
13927;SDS011;7036;50.834;4.718;2022-11-20T10:31:42;15.63;;;8.97;;
13927;SDS011;7036;50.834;4.718;2022-11-20T10:34:07;18.60;;;9.90;;
13927;SDS011;7036;50.834;4.718;2022-11-20T10:36:34;18.30;;;9.93;;
13927;SDS011;7036;50.834;4.718;2022-11-20T10:39:07;15.50;;;8.68;;
13927;SDS011;7036;50.834;4.718;2022-11-20T10:41:34;20.00;;;8.47;;
13927;SDS011;7036;50.834;4.718;2022-11-20T10:46:45;18.83;;;10.07;;
13927;SDS011;7036;50.834;4.718;2022-11-20T10:49:15;16.33;;;8.77;;
13927;SDS011;7036;50.834;4.718;2022-11-20T10:57:06;13.37;;;8.83;;
13927;SDS011;7036;50.834;4.718;2022-11-20T10:59:41;16.80;;;8.87;;
13927;SDS011;7036;50.834;4.718;2022-11-20T11:02:18;33.37;;;9.00;;
13927;SDS011;7036;50.834;4.718;2022-11-20T11:04:44;14.43;;;8.57;;
13927;SDS011;7036;50.834;4.718;2022-11-20T11:07:12;11.10;;;7.20;;
13927;SDS011;7036;50.834;4.718;2022-11-20T11:09:42;16.48;;;8.50;;
13927;SDS011;7036;50.834;4.718;2022-11-20T11:12:10;12.10;;;8.20;;
13927;SDS011;7036;50.834;4.718;2022-11-20T11:14:43;15.20;;;7.73;;
13927;SDS011;7036;50.834;4.718;2022-11-20T11:17:18;12.33;;;7.57;;
13927;SDS011;7036;50.834;4.718;2022-11-20T11:19:37;12.82;;;7.55;;
13927;SDS011;7036;50.834;4.718;2022-11-20T11:22:05;13.35;;;7.25;;
13927;SDS011;7036;50.834;4.718;2022-11-20T11:24:32;10.77;;;7.63;;
13927;SDS011;7036;50.834;4.718;2022-11-20T11:29:27;13.52;;;6.63;;
13927;SDS011;7036;50.834;4.718;2022-11-20T11:32:11;10.50;;;7.20;;
13927;SDS011;7036;50.834;4.718;2022-11-20T11:34:33;9.30;;;6.47;;
13927;SDS011;7036;50.834;4.718;2022-11-20T11:37:00;11.57;;;7.00;;
13927;SDS011;7036;50.834;4.718;2022-11-20T11:39:28;12.02;;;6.75;;
13927;SDS011;7036;50.834;4.718;2022-11-20T11:41:56;8.30;;;5.90;;
13927;SDS011;7036;50.834;4.718;2022-11-20T11:44:25;8.38;;;6.35;;
13927;SDS011;7036;50.834;4.718;2022-11-20T11:47:10;9.63;;;5.93;;
13927;SDS011;7036;50.834;4.718;2022-11-20T11:49:36;15.15;;;6.70;;
13927;SDS011;7036;50.834;4.718;2022-11-20T11:52:11;8.88;;;6.07;;
13927;SDS011;7036;50.834;4.718;2022-11-20T11:54:43;9.20;;;5.77;;
13927;SDS011;7036;50.834;4.718;2022-11-20T11:57:26;8.27;;;6.20;;
13927;SDS011;7036;50.834;4.718;2022-11-20T12:00:00;10.50;;;6.03;;
13927;SDS011;7036;50.834;4.718;2022-11-20T12:02:40;7.53;;;5.20;;
13927;SDS011;7036;50.834;4.718;2022-11-20T12:05:15;6.87;;;5.07;;
13927;SDS011;7036;50.834;4.718;2022-11-20T12:11:03;6.70;;;4.90;;
13927;SDS011;7036;50.834;4.718;2022-11-20T12:16:00;7.93;;;4.83;;
13927;SDS011;7036;50.834;4.718;2022-11-20T12:18:28;8.43;;;5.55;;
13927;SDS011;7036;50.834;4.718;2022-11-20T12:21:00;9.02;;;5.03;;
13927;SDS011;7036;50.834;4.718;2022-11-20T12:23:36;7.93;;;4.90;;
13927;SDS011;7036;50.834;4.718;2022-11-20T12:26:00;8.97;;;5.27;;
13927;SDS011;7036;50.834;4.718;2022-11-20T12:33:39;8.30;;;5.40;;
13927;SDS011;7036;50.834;4.718;2022-11-20T12:36:13;7.87;;;4.90;;
13927;SDS011;7036;50.834;4.718;2022-11-20T12:47:49;5.60;;;4.27;;
13927;SDS011;7036;50.834;4.718;2022-11-20T12:53:11;6.47;;;4.50;;
13927;SDS011;7036;50.834;4.718;2022-11-20T13:01:55;5.50;;;3.53;;
13927;SDS011;7036;50.834;4.718;2022-11-20T13:03:39;7.33;;;3.60;;
13927;SDS011;7036;50.834;4.718;2022-11-20T13:06:17;5.87;;;3.77;;
13927;SDS011;7036;50.834;4.718;2022-11-20T13:08:45;9.67;;;4.10;;
13927;SDS011;7036;50.834;4.718;2022-11-20T13:16:33;7.47;;;3.83;;
13927;SDS011;7036;50.834;4.718;2022-11-20T13:19:03;5.43;;;3.43;;
13927;SDS011;7036;50.834;4.718;2022-11-20T13:21:40;6.03;;;3.50;;
13927;SDS011;7036;50.834;4.718;2022-11-20T13:24:06;4.57;;;3.23;;
13927;SDS011;7036;50.834;4.718;2022-11-20T13:26:36;5.57;;;3.80;;
13927;SDS011;7036;50.834;4.718;2022-11-20T13:29:08;3.30;;;3.00;;
13927;SDS011;7036;50.834;4.718;2022-11-20T13:31:31;5.10;;;3.30;;
13927;SDS011;7036;50.834;4.718;2022-11-20T13:34:02;4.57;;;3.60;;
13927;SDS011;7036;50.834;4.718;2022-11-20T13:36:28;3.03;;;2.73;;
13927;SDS011;7036;50.834;4.718;2022-11-20T13:38:55;3.63;;;2.50;;
13927;SDS011;7036;50.834;4.718;2022-11-20T13:41:33;6.97;;;3.60;;
13927;SDS011;7036;50.834;4.718;2022-11-20T13:44:04;4.00;;;2.67;;
13927;SDS011;7036;50.834;4.718;2022-11-20T13:46:36;4.63;;;3.05;;
13927;SDS011;7036;50.834;4.718;2022-11-20T13:49:07;3.00;;;2.43;;
13927;SDS011;7036;50.834;4.718;2022-11-20T13:59:58;6.93;;;3.67;;
13927;SDS011;7036;50.834;4.718;2022-11-20T14:02:25;6.13;;;2.80;;
13927;SDS011;7036;50.834;4.718;2022-11-20T14:04:52;4.57;;;2.92;;
13927;SDS011;7036;50.834;4.718;2022-11-20T14:07:19;3.78;;;2.35;;
13927;SDS011;7036;50.834;4.718;2022-11-20T14:09:53;3.45;;;2.15;;
13927;SDS011;7036;50.834;4.718;2022-11-20T14:12:20;3.07;;;2.07;;
13927;SDS011;7036;50.834;4.718;2022-11-20T14:14:47;4.60;;;2.58;;
13927;SDS011;7036;50.834;4.718;2022-11-20T14:17:18;3.58;;;2.33;;
13927;SDS011;7036;50.834;4.718;2022-11-20T14:19:44;3.73;;;2.60;;
13927;SDS011;7036;50.834;4.718;2022-11-20T14:22:22;6.18;;;2.50;;
13927;SDS011;7036;50.834;4.718;2022-11-20T14:24:48;8.23;;;2.60;;
13927;SDS011;7036;50.834;4.718;2022-11-20T14:27:17;5.03;;;2.30;;
13927;SDS011;7036;50.834;4.718;2022-11-20T14:29:43;2.83;;;2.22;;
13927;SDS011;7036;50.834;4.718;2022-11-20T14:32:10;4.25;;;2.42;;
13927;SDS011;7036;50.834;4.718;2022-11-20T14:34:38;9.23;;;2.28;;
13927;SDS011;7036;50.834;4.718;2022-11-20T14:37:05;5.03;;;2.60;;
13927;SDS011;7036;50.834;4.718;2022-11-20T14:39:34;3.83;;;2.20;;
13927;SDS011;7036;50.834;4.718;2022-11-20T14:42:02;3.40;;;2.03;;
13927;SDS011;7036;50.834;4.718;2022-11-20T14:44:34;5.57;;;2.20;;
13927;SDS011;7036;50.834;4.718;2022-11-20T14:46:59;5.30;;;1.83;;
13927;SDS011;7036;50.834;4.718;2022-11-20T14:49:25;3.58;;;2.17;;
13927;SDS011;7036;50.834;4.718;2022-11-20T14:52:00;2.97;;;1.83;;
13927;SDS011;7036;50.834;4.718;2022-11-20T14:54:29;3.63;;;2.03;;
13927;SDS011;7036;50.834;4.718;2022-11-20T14:56:58;2.90;;;2.22;;
13927;SDS011;7036;50.834;4.718;2022-11-20T14:59:24;2.28;;;2.08;;
13927;SDS011;7036;50.834;4.718;2022-11-20T15:01:55;2.97;;;1.98;;
13927;SDS011;7036;50.834;4.718;2022-11-20T15:04:21;3.00;;;2.10;;
13927;SDS011;7036;50.834;4.718;2022-11-20T15:06:50;2.70;;;1.63;;
13927;SDS011;7036;50.834;4.718;2022-11-20T15:09:17;2.25;;;1.77;;
13927;SDS011;7036;50.834;4.718;2022-11-20T15:11:54;2.92;;;1.90;;
13927;SDS011;7036;50.834;4.718;2022-11-20T15:14:17;2.00;;;1.37;;
13927;SDS011;7036;50.834;4.718;2022-11-20T15:16:45;2.25;;;1.77;;
13927;SDS011;7036;50.834;4.718;2022-11-20T15:19:16;1.95;;;1.70;;
13927;SDS011;7036;50.834;4.718;2022-11-20T15:21:40;2.20;;;1.88;;
13927;SDS011;7036;50.834;4.718;2022-11-20T15:24:08;4.25;;;2.00;;
13927;SDS011;7036;50.834;4.718;2022-11-20T15:26:36;1.88;;;1.70;;
13927;SDS011;7036;50.834;4.718;2022-11-20T15:29:04;2.33;;;1.67;;
13927;SDS011;7036;50.834;4.718;2022-11-20T15:31:32;2.53;;;1.75;;
13927;SDS011;7036;50.834;4.718;2022-11-20T15:34:00;2.03;;;1.42;;
13927;SDS011;7036;50.834;4.718;2022-11-20T15:36:29;3.45;;;2.00;;
13927;SDS011;7036;50.834;4.718;2022-11-20T15:38:56;2.50;;;1.60;;
13927;SDS011;7036;50.834;4.718;2022-11-20T15:41:24;2.35;;;1.80;;
13927;SDS011;7036;50.834;4.718;2022-11-20T15:43:51;1.75;;;1.52;;
13927;SDS011;7036;50.834;4.718;2022-11-20T15:46:23;3.15;;;1.70;;
13927;SDS011;7036;50.834;4.718;2022-11-20T15:48:49;2.85;;;1.67;;
13927;SDS011;7036;50.834;4.718;2022-11-20T15:51:19;2.60;;;1.63;;
13927;SDS011;7036;50.834;4.718;2022-11-20T15:57:00;1.87;;;1.60;;
13927;SDS011;7036;50.834;4.718;2022-11-20T15:59:28;2.33;;;1.42;;
13927;SDS011;7036;50.834;4.718;2022-11-20T16:02:10;2.05;;;1.48;;
13927;SDS011;7036;50.834;4.718;2022-11-20T16:04:36;2.37;;;1.10;;
13927;SDS011;7036;50.834;4.718;2022-11-20T16:07:04;2.10;;;1.60;;
13927;SDS011;7036;50.834;4.718;2022-11-20T16:09:31;2.88;;;1.40;;
13927;SDS011;7036;50.834;4.718;2022-11-20T16:11:59;3.80;;;1.75;;
13927;SDS011;7036;50.834;4.718;2022-11-20T16:14:27;2.28;;;1.23;;
13927;SDS011;7036;50.834;4.718;2022-11-20T16:17:12;1.50;;;1.40;;
13927;SDS011;7036;50.834;4.718;2022-11-20T16:19:40;1.50;;;1.40;;
13927;SDS011;7036;50.834;4.718;2022-11-20T16:22:10;2.53;;;1.60;;
13927;SDS011;7036;50.834;4.718;2022-11-20T16:24:36;4.57;;;1.55;;